Time;durP1;ratioP1;P1;durP2;ratioP2;P2;SDS_P1;SDS_P2;PMS_P1;PMS_P2;Temp;Humidity;BMP_temperature;BMP_pressure;BME280_temperature;BME280_humidity;BME280_pressure;Samples;Min_cycle;Max_cycle;Signal;HPM_P1;HPM_P2
2022/11/05 00:10:23;;;;;;;24.02;12.60;;;;;;;6.27;100.00;101407.59;5037914;28;20029;-75
2022/11/05 00:18:18;;;;;;;22.58;11.13;;;;;;;6.37;100.00;101418.72;5031428;28;20595;-74
2022/11/05 00:20:44;;;;;;;23.48;11.50;;;;;;;6.52;100.00;101420.78;5035730;28;20033;-75
2022/11/05 00:25:54;;;;;;;28.60;11.27;;;;;;;6.54;100.00;101418.97;5039917;28;20474;-74
2022/11/05 00:28:20;;;;;;;25.25;11.02;;;;;;;6.58;100.00;101422.38;5031657;28;20378;-75
2022/11/05 00:30:45;;;;;;;20.38;9.95;;;;;;;6.74;100.00;101426.16;5030491;28;20039;-74
2022/11/05 00:33:11;;;;;;;22.52;10.70;;;;;;;6.72;100.00;101428.84;5032571;28;20036;-75
2022/11/05 00:35:36;;;;;;;19.83;10.25;;;;;;;6.76;100.00;101429.59;5027288;28;20606;-74
2022/11/05 00:38:02;;;;;;;17.90;10.15;;;;;;;6.78;100.00;101435.72;5026920;28;20060;-75
2022/11/05 00:40:27;;;;;;;20.58;9.73;;;;;;;6.82;100.00;101437.31;5024334;28;20037;-74
2022/11/05 00:45:37;;;;;;;19.50;9.95;;;;;;;6.94;100.00;101434.22;5030063;28;20103;-74
2022/11/05 00:50:46;;;;;;;15.40;9.70;;;;;;;6.94;100.00;101423.63;5026572;28;20037;-74
2022/11/05 00:53:12;;;;;;;30.05;11.30;;;;;;;6.99;100.00;101431.38;5032753;28;20051;-74
2022/11/05 00:55:43;;;;;;;20.80;10.68;;;;;;;7.03;100.00;101433.00;5033730;28;20041;-75
2022/11/05 00:58:14;;;;;;;19.27;10.73;;;;;;;7.06;100.00;101437.31;5038067;28;20039;-74
2022/11/05 01:00:47;;;;;;;19.55;9.50;;;;;;;7.08;100.00;101433.69;5031666;28;20056;-75
2022/11/05 01:03:14;;;;;;;23.33;9.45;;;;;;;7.09;100.00;101426.59;5031853;28;20045;-76
2022/11/05 01:05:43;;;;;;;29.23;11.13;;;;;;;7.04;100.00;101431.22;5045404;28;20814;-76
2022/11/05 01:08:09;;;;;;;18.20;9.38;;;;;;;7.00;100.00;101430.47;5031109;28;20077;-75
2022/11/05 01:10:43;;;;;;;25.00;10.23;;;;;;;6.83;100.00;101439.06;5034979;28;20109;-75
2022/11/05 01:13:09;;;;;;;20.65;9.32;;;;;;;6.82;100.00;101437.31;5025780;28;20033;-75
2022/11/05 01:15:36;;;;;;;19.00;9.70;;;;;;;6.80;100.00;101440.97;5037328;28;20080;-75
2022/11/05 01:18:03;;;;;;;24.17;10.30;;;;;;;6.77;100.00;101438.41;5039275;28;20029;-74
2022/11/05 01:20:28;;;;;;;17.70;10.43;;;;;;;6.64;100.00;101440.69;5038830;28;20140;-75
2022/11/05 01:22:54;;;;;;;19.27;9.88;;;;;;;6.50;100.00;101446.50;5027678;28;20119;-75
2022/11/05 01:25:19;;;;;;;25.80;9.93;;;;;;;6.48;100.00;101451.84;5037331;28;20038;-75
2022/11/05 01:27:45;;;;;;;27.05;11.43;;;;;;;6.49;100.00;101448.28;5028773;28;20139;-75
2022/11/05 01:30:11;;;;;;;23.17;9.90;;;;;;;6.53;100.00;101448.19;5033312;28;20870;-74
2022/11/05 01:32:37;;;;;;;24.10;9.85;;;;;;;6.36;100.00;101444.34;5038419;28;20481;-75
2022/11/05 01:35:07;;;;;;;26.60;10.35;;;;;;;6.33;100.00;101446.25;5034105;28;20052;-75
2022/11/05 01:37:34;;;;;;;15.38;8.98;;;;;;;6.24;100.00;101452.72;5029818;28;20049;-75
2022/11/05 01:39:59;;;;;;;19.90;9.88;;;;;;;6.17;100.00;101451.19;5036163;28;20029;-75
2022/11/05 01:42:26;;;;;;;22.05;10.15;;;;;;;6.15;100.00;101453.06;5029292;28;20053;-74
2022/11/05 01:44:55;;;;;;;18.95;9.88;;;;;;;6.12;100.00;101458.44;5029546;28;20895;-74
2022/11/05 01:47:42;;;;;;;16.23;9.65;;;;;;;5.99;100.00;101454.50;5040418;28;20043;-75
2022/11/05 01:50:36;;;;;;;18.02;10.43;;;;;;;5.92;100.00;101460.03;5037299;28;20064;-75
2022/11/05 01:53:08;;;;;;;19.23;9.93;;;;;;;5.78;100.00;101459.59;4980613;28;20571;-74
2022/11/05 01:55:37;;;;;;;19.52;10.02;;;;;;;5.77;100.00;101462.25;4975617;28;20101;-75
2022/11/05 01:58:06;;;;;;;14.85;8.27;;;;;;;5.68;100.00;101464.31;4975754;28;20051;-74
2022/11/05 02:00:33;;;;;;;13.93;8.43;;;;;;;5.67;100.00;101467.00;4963471;28;20043;-74
2022/11/05 02:02:59;;;;;;;16.48;8.48;;;;;;;5.57;100.00;101463.81;4984236;28;20130;-75
2022/11/05 02:05:24;;;;;;;18.55;9.50;;;;;;;5.59;100.00;101469.91;4982281;28;20141;-74
2022/11/05 02:07:51;;;;;;;16.92;9.35;;;;;;;5.60;100.00;101465.47;4972300;28;20046;-74
2022/11/05 02:10:17;;;;;;;17.50;7.72;;;;;;;5.67;100.00;101464.34;4981709;28;20058;-75
2022/11/05 02:12:44;;;;;;;16.30;9.50;;;;;;;5.78;100.00;101458.72;4978651;28;20042;-74
2022/11/05 02:15:12;;;;;;;17.67;8.40;;;;;;;5.77;100.00;101460.47;4978370;28;20109;-74
2022/11/05 02:17:52;;;;;;;13.65;8.20;;;;;;;5.72;100.00;101462.41;4978507;28;20085;-74
2022/11/05 02:20:29;;;;;;;17.70;8.52;;;;;;;5.66;100.00;101468.78;4983555;28;20047;-74
2022/11/05 02:23:24;;;;;;;13.48;8.02;;;;;;;5.63;100.00;101460.97;4975442;28;20097;-74
2022/11/05 02:26:07;;;;;;;14.38;7.68;;;;;;;5.66;100.00;101462.63;4969614;28;20030;-74
2022/11/05 02:29:10;;;;;;;15.57;8.15;;;;;;;5.55;100.00;101460.34;4981541;28;20129;-75
2022/11/05 02:31:46;;;;;;;17.77;9.13;;;;;;;5.52;100.00;101460.41;5036996;28;20488;-75
2022/11/05 02:34:23;;;;;;;19.13;8.80;;;;;;;5.51;100.00;101452.53;5027905;28;20118;-74
2022/11/05 02:36:57;;;;;;;13.40;8.27;;;;;;;5.41;100.00;101451.97;5040290;28;20137;-75
2022/11/05 02:39:53;;;;;;;20.10;9.48;;;;;;;5.39;100.00;101453.81;5036413;28;20167;-74
2022/11/05 02:42:37;;;;;;;21.90;10.30;;;;;;;5.31;100.00;101456.69;5035566;28;20128;-74
2022/11/05 02:45:21;;;;;;;19.67;9.25;;;;;;;5.30;100.00;101449.69;5031775;28;20116;-74
2022/11/05 02:47:57;;;;;;;15.80;9.38;;;;;;;5.17;100.00;101450.97;5037553;28;20041;-74
2022/11/05 02:50:47;;;;;;;14.48;8.57;;;;;;;5.01;100.00;101457.66;5031300;28;20061;-75
2022/11/05 02:53:18;;;;;;;19.95;10.50;;;;;;;4.98;100.00;101455.13;5036074;28;20033;-74
2022/11/05 02:55:58;;;;;;;22.75;10.90;;;;;;;4.90;100.00;101455.34;5039344;28;20493;-74
2022/11/05 02:58:26;;;;;;;19.92;10.70;;;;;;;4.87;100.00;101458.06;5035718;28;20039;-74
2022/11/05 03:00:55;;;;;;;14.63;7.32;;;;;;;4.62;100.00;101447.38;5031163;28;20032;-74
2022/11/05 03:03:39;;;;;;;16.02;9.15;;;;;;;4.70;100.00;101447.13;5035635;28;20033;-74
2022/11/05 03:06:35;;;;;;;20.17;8.52;;;;;;;4.68;100.00;101450.69;5041476;28;20037;-74
2022/11/05 03:09:25;;;;;;;14.95;8.10;;;;;;;4.70;100.00;101445.34;5026701;28;20580;-75
2022/11/05 03:12:13;;;;;;;18.85;11.05;;;;;;;4.61;100.00;101442.97;5037410;28;20037;-74
2022/11/05 03:15:00;;;;;;;17.63;10.60;;;;;;;4.58;100.00;101449.22;5038519;28;20380;-74
2022/11/05 03:17:37;;;;;;;19.45;9.57;;;;;;;4.64;100.00;101450.81;5034869;28;20084;-74
2022/11/05 03:20:19;;;;;;;23.50;10.63;;;;;;;4.58;100.00;101448.38;5035337;28;20068;-74
2022/11/05 03:23:04;;;;;;;19.50;11.47;;;;;;;4.48;100.00;101446.91;5032339;28;20033;-75
2022/11/05 03:25:34;;;;;;;15.70;9.13;;;;;;;4.45;100.00;101461.03;5037362;28;20459;-74
2022/11/05 03:28:04;;;;;;;16.45;8.75;;;;;;;4.36;100.00;101459.50;5036917;28;20041;-74
2022/11/05 03:30:32;;;;;;;15.57;9.10;;;;;;;4.43;100.00;101464.66;5039751;28;20037;-74
2022/11/05 03:33:02;;;;;;;17.08;9.40;;;;;;;4.28;100.00;101472.06;5039420;28;20063;-74
2022/11/05 03:35:33;;;;;;;13.82;9.25;;;;;;;4.18;100.00;101460.03;5036539;28;20036;-74
2022/11/05 03:38:03;;;;;;;22.20;9.88;;;;;;;4.28;100.00;101464.16;5034905;28;20040;-74
2022/11/05 03:40:33;;;;;;;22.13;9.60;;;;;;;4.33;100.00;101469.31;5035402;28;20052;-74
2022/11/05 03:43:03;;;;;;;18.85;9.68;;;;;;;4.25;100.00;101466.88;5029458;28;20083;-74
2022/11/05 03:45:40;;;;;;;17.05;10.25;;;;;;;4.14;100.00;101466.28;5022225;28;20043;-74
2022/11/05 03:48:09;;;;;;;19.73;9.50;;;;;;;4.15;100.00;101462.75;5032454;28;20048;-74
2022/11/05 03:51:05;;;;;;;20.73;11.00;;;;;;;4.18;100.00;101465.31;5028391;28;20124;-74
2022/11/05 03:53:46;;;;;;;15.70;8.82;;;;;;;4.13;100.00;101472.50;5032324;28;20040;-74
2022/11/05 03:56:25;;;;;;;15.88;8.48;;;;;;;3.97;100.00;101472.03;5031706;28;20056;-74
2022/11/05 03:58:53;;;;;;;17.80;9.07;;;;;;;4.00;100.00;101465.78;5034800;28;20561;-75
2022/11/05 04:01:19;;;;;;;17.20;9.23;;;;;;;4.00;100.00;101478.97;5030997;28;20650;-74
2022/11/05 04:03:44;;;;;;;14.32;9.50;;;;;;;4.05;100.00;101474.44;5023307;28;20045;-74
2022/11/05 04:14:22;;;;;;;19.83;10.30;;;;;;;4.18;100.00;101480.28;5030019;28;20835;-74
2022/11/05 04:17:07;;;;;;;21.52;9.90;;;;;;;4.13;100.00;101489.19;5027068;28;20056;-74
2022/11/05 04:25:16;;;;;;;19.17;9.70;;;;;;;4.05;100.00;101482.38;5027989;28;20049;-74
2022/11/05 04:27:42;;;;;;;22.35;11.30;;;;;;;4.08;100.00;101490.22;5025051;28;20049;-75
2022/11/05 04:30:17;;;;;;;14.43;8.50;;;;;;;4.10;100.00;101485.75;5032535;28;20066;-74
2022/11/05 04:32:59;;;;;;;24.60;10.13;;;;;;;4.01;100.00;101486.84;5033472;28;20037;-75
2022/11/05 04:35:31;;;;;;;20.05;9.82;;;;;;;4.01;100.00;101493.91;5030897;28;20485;-75
2022/11/05 04:37:56;;;;;;;17.60;9.07;;;;;;;3.92;100.00;101496.81;5037521;28;20059;-74
2022/11/05 04:40:22;;;;;;;19.58;8.48;;;;;;;3.86;100.00;101493.38;5031022;28;20894;-73
2022/11/05 04:42:47;;;;;;;19.40;9.48;;;;;;;3.97;100.00;101490.50;5031168;28;20040;-74
2022/11/05 04:45:13;;;;;;;20.58;9.68;;;;;;;3.99;100.00;101491.31;5036026;28;20052;-74
2022/11/05 04:47:38;;;;;;;16.92;9.60;;;;;;;3.95;100.00;101497.56;5033815;28;20151;-74
2022/11/05 04:50:04;;;;;;;14.25;8.45;;;;;;;3.87;100.00;101503.06;5037028;28;20040;-74
2022/11/05 04:52:29;;;;;;;19.73;8.82;;;;;;;4.05;100.00;101503.47;5036756;28;20045;-75
2022/11/05 04:54:55;;;;;;;17.95;10.25;;;;;;;4.04;100.00;101501.75;5022401;28;20037;-74
2022/11/05 04:57:20;;;;;;;21.02;9.98;;;;;;;3.99;100.00;101504.50;5024449;28;20040;-74
2022/11/05 04:59:49;;;;;;;14.63;8.57;;;;;;;4.03;100.00;101508.81;5036111;28;20052;-73
2022/11/05 05:02:14;;;;;;;16.92;8.52;;;;;;;3.99;100.00;101503.66;5027607;28;20069;-74
2022/11/05 05:04:39;;;;;;;20.30;8.85;;;;;;;3.96;100.00;101501.06;5033172;28;20038;-74
2022/11/05 05:07:05;;;;;;;20.38;9.68;;;;;;;3.91;100.00;101503.81;5024291;28;20045;-75
2022/11/05 05:09:30;;;;;;;15.07;8.55;;;;;;;3.84;100.00;101508.41;5036233;28;20029;-74
2022/11/05 05:11:56;;;;;;;14.32;7.85;;;;;;;3.77;100.00;101508.59;5030423;28;20033;-74
2022/11/05 05:14:21;;;;;;;14.70;8.27;;;;;;;3.54;100.00;101519.69;5032792;28;20040;-75
2022/11/05 05:16:48;;;;;;;15.52;7.45;;;;;;;3.66;100.00;101516.75;5035968;28;20404;-75
2022/11/05 05:19:14;;;;;;;15.18;8.40;;;;;;;3.56;100.00;101521.38;5033502;28;20049;-74
2022/11/05 05:21:40;;;;;;;16.42;8.63;;;;;;;3.56;100.00;101520.50;5032669;28;20491;-75
2022/11/05 05:24:15;;;;;;;17.40;10.00;;;;;;;3.66;100.00;101532.56;5036303;28;20037;-74
2022/11/05 05:26:44;;;;;;;19.40;9.65;;;;;;;3.60;100.00;101530.09;5029236;28;20029;-74
2022/11/05 05:29:10;;;;;;;18.83;9.55;;;;;;;3.57;100.00;101541.59;5040223;28;20104;-74
2022/11/05 05:31:36;;;;;;;19.95;9.38;;;;;;;3.55;100.00;101529.31;5025371;28;20056;-76
2022/11/05 05:34:03;;;;;;;19.85;9.90;;;;;;;3.60;100.00;101525.66;5029371;28;20076;-76
2022/11/05 05:36:29;;;;;;;15.18;9.75;;;;;;;3.56;100.00;101528.41;5024026;28;20860;-75
2022/11/05 05:38:54;;;;;;;18.02;9.63;;;;;;;3.40;100.00;101532.31;5028616;28;20029;-75
2022/11/05 05:41:21;;;;;;;27.00;10.15;;;;;;;3.44;100.00;101528.72;5032794;28;20052;-75
2022/11/05 05:43:46;;;;;;;24.42;9.77;;;;;;;3.42;100.00;101525.25;5036876;28;20040;-75
2022/11/05 05:46:13;;;;;;;18.70;10.07;;;;;;;3.37;100.00;101515.69;5037512;28;20053;-76
2022/11/05 05:48:40;;;;;;;21.92;10.48;;;;;;;3.44;100.00;101531.34;5024224;28;20844;-75
2022/11/05 05:51:08;;;;;;;15.07;9.57;;;;;;;3.32;100.00;101530.72;5033790;28;20037;-75
2022/11/05 05:53:34;;;;;;;19.65;10.25;;;;;;;3.35;100.00;101530.63;5029595;28;20041;-75
2022/11/05 05:56:00;;;;;;;19.90;10.77;;;;;;;3.33;100.00;101528.97;5033287;28;20036;-75
2022/11/05 05:58:31;;;;;;;15.45;9.43;;;;;;;3.24;100.00;101537.91;5038528;28;20456;-75
2022/11/05 06:01:00;;;;;;;23.33;10.90;;;;;;;3.30;100.00;101535.16;5034674;28;20378;-76
2022/11/05 06:03:25;;;;;;;21.95;10.40;;;;;;;3.35;100.00;101535.03;5039931;28;20037;-76
2022/11/05 06:05:51;;;;;;;22.73;11.50;;;;;;;3.37;100.00;101536.75;5039766;28;20056;-75
2022/11/05 06:08:16;;;;;;;19.67;10.77;;;;;;;3.24;100.00;101537.06;5025127;28;20137;-76
2022/11/05 06:10:41;;;;;;;17.65;10.05;;;;;;;3.24;100.00;101537.06;5032911;28;20040;-76
2022/11/05 06:13:07;;;;;;;16.80;10.27;;;;;;;3.22;100.00;101537.09;5028541;28;20037;-75
2022/11/05 06:15:32;;;;;;;19.52;11.40;;;;;;;3.29;100.00;101543.09;5035379;28;20053;-75
2022/11/05 06:17:58;;;;;;;18.48;11.18;;;;;;;3.33;100.00;101548.28;5033998;28;20037;-76
2022/11/05 06:20:23;;;;;;;19.75;11.02;;;;;;;3.33;100.00;101545.63;5032910;28;20064;-75
2022/11/05 06:22:58;;;;;;;19.55;11.55;;;;;;;3.23;100.00;101540.59;5033759;28;20033;-76
2022/11/05 06:25:24;;;;;;;26.55;13.07;;;;;;;3.21;100.00;101545.88;5042091;28;20548;-76
2022/11/05 06:27:49;;;;;;;31.80;14.35;;;;;;;3.20;100.00;101546.78;5031194;28;20159;-75
2022/11/05 06:30:16;;;;;;;24.55;13.00;;;;;;;3.25;100.00;101541.41;5044349;28;20041;-75
2022/11/05 06:32:42;;;;;;;23.65;12.27;;;;;;;3.29;100.00;101549.22;5031244;28;20103;-76
2022/11/05 06:35:08;;;;;;;24.98;13.13;;;;;;;3.13;100.00;101553.09;5032240;28;20959;-75
2022/11/05 06:37:33;;;;;;;13.55;9.15;;;;;;;3.11;100.00;101557.53;5032588;28;20041;-76
2022/11/05 06:39:59;;;;;;;24.25;12.23;;;;;;;3.07;100.00;101561.16;5039088;28;20033;-75
2022/11/05 06:42:24;;;;;;;23.13;12.00;;;;;;;3.22;100.00;101552.91;5038520;28;20037;-75
2022/11/05 06:44:51;;;;;;;25.08;12.05;;;;;;;3.27;100.00;101560.72;5035924;28;20051;-75
2022/11/05 06:47:19;;;;;;;24.88;13.63;;;;;;;3.31;100.00;101554.47;5035425;28;20049;-75
2022/11/05 06:49:45;;;;;;;28.63;13.13;;;;;;;3.34;100.00;101560.53;5037507;28;20036;-75
2022/11/05 06:52:11;;;;;;;30.52;15.15;;;;;;;3.47;100.00;101563.78;5034342;28;20087;-75
2022/11/05 06:54:37;;;;;;;21.70;11.57;;;;;;;3.19;100.00;101560.88;5032095;28;20056;-75
2022/11/05 06:57:03;;;;;;;121.65;13.52;;;;;;;3.00;100.00;101564.78;5034650;28;20037;-75
2022/11/05 06:59:30;;;;;;;18.42;9.98;;;;;;;2.92;100.00;101575.50;5039856;28;20072;-75
2022/11/05 07:01:55;;;;;;;20.45;10.98;;;;;;;3.01;100.00;101574.41;5025433;28;20041;-75
2022/11/05 07:04:21;;;;;;;23.02;11.70;;;;;;;3.17;100.00;101578.50;5039495;28;20094;-75
2022/11/05 07:06:46;;;;;;;21.23;11.32;;;;;;;3.29;100.00;101580.00;5039430;28;20041;-75
2022/11/05 07:09:11;;;;;;;24.15;12.57;;;;;;;3.41;100.00;101582.34;5032428;28;20049;-75
2022/11/05 07:11:37;;;;;;;27.30;13.52;;;;;;;3.54;100.00;101586.47;5030260;28;20021;-75
2022/11/05 07:14:02;;;;;;;27.45;14.32;;;;;;;3.53;100.00;101589.16;5007067;28;20405;-75
2022/11/05 07:16:28;;;;;;;24.63;12.88;;;;;;;3.51;100.00;101594.44;5034030;28;20082;-76
2022/11/05 07:18:54;;;;;;;29.15;13.13;;;;;;;3.60;100.00;101588.97;5031907;28;20044;-75
2022/11/05 07:21:21;;;;;;;24.60;12.57;;;;;;;3.79;100.00;101605.25;5035527;28;20041;-75
2022/11/05 07:23:46;;;;;;;27.00;15.07;;;;;;;4.00;100.00;101592.44;5038439;28;20489;-75
2022/11/05 07:26:12;;;;;;;30.90;15.50;;;;;;;4.13;100.00;101596.53;5037262;28;20075;-75
2022/11/05 07:28:37;;;;;;;29.40;16.98;;;;;;;4.30;100.00;101598.75;5032884;28;20127;-75
2022/11/05 07:31:03;;;;;;;33.85;17.58;;;;;;;4.39;100.00;101595.88;5041040;28;20064;-74
2022/11/05 07:33:28;;;;;;;28.48;15.80;;;;;;;4.44;100.00;101601.91;5038751;28;20057;-75
2022/11/05 07:35:57;;;;;;;27.80;16.52;;;;;;;4.55;100.00;101606.91;5033049;28;20034;-75
2022/11/05 07:38:23;;;;;;;29.38;17.25;;;;;;;4.61;100.00;101602.31;5034442;28;20511;-75
2022/11/05 07:40:49;;;;;;;30.90;16.27;;;;;;;4.72;100.00;101606.44;5016897;28;20041;-75
2022/11/05 07:43:14;;;;;;;31.77;16.58;;;;;;;4.66;100.00;101602.19;4996287;28;20029;-75
2022/11/05 07:45:39;;;;;;;28.38;16.10;;;;;;;4.84;100.00;101609.63;5026928;28;20037;-75
2022/11/05 07:48:05;;;;;;;28.67;16.02;;;;;;;4.97;100.00;101607.53;5037288;28;20481;-75
2022/11/05 07:50:33;;;;;;;29.60;18.10;;;;;;;5.00;100.00;101615.34;5033465;28;20535;-75
2022/11/05 07:53:03;;;;;;;30.65;17.02;;;;;;;5.12;100.00;101612.41;5035716;28;20033;-75
2022/11/05 07:55:29;;;;;;;34.50;17.83;;;;;;;5.12;100.00;101611.50;5029846;28;20863;-76
2022/11/05 07:57:55;;;;;;;33.33;17.30;;;;;;;5.31;100.00;101609.19;5027775;28;20630;-75
2022/11/05 08:00:22;;;;;;;33.17;17.67;;;;;;;5.44;100.00;101607.94;5036378;28;20060;-75
2022/11/05 08:02:59;;;;;;;31.73;17.77;;;;;;;5.53;100.00;101606.81;5029931;28;20056;-75
2022/11/05 08:05:25;;;;;;;33.28;17.58;;;;;;;5.67;100.00;101608.13;5034130;28;20114;-76
2022/11/05 08:07:53;;;;;;;31.17;16.67;;;;;;;5.78;100.00;101607.78;5031650;28;20427;-75
2022/11/05 08:10:19;;;;;;;31.98;17.42;;;;;;;5.85;100.00;101600.50;5036935;28;20075;-75
2022/11/05 08:12:44;;;;;;;36.92;18.20;;;;;;;5.84;100.00;101602.28;5036649;28;20037;-74
2022/11/05 08:15:11;;;;;;;33.78;16.65;;;;;;;5.93;100.00;101598.53;5036750;28;20064;-76
2022/11/05 08:17:36;;;;;;;30.75;17.17;;;;;;;6.08;100.00;101600.69;5036947;28;20124;-77
2022/11/05 08:20:02;;;;;;;32.55;17.60;;;;;;;6.17;100.00;101600.34;5033445;28;20106;-75
2022/11/05 08:22:28;;;;;;;32.80;17.40;;;;;;;6.15;100.00;101599.53;5035836;28;20071;-75
2022/11/05 08:24:53;;;;;;;29.65;17.27;;;;;;;6.20;100.00;101596.75;5029614;28;20053;-75
2022/11/05 08:27:18;;;;;;;31.23;16.85;;;;;;;6.33;100.00;101606.03;5030855;28;20047;-75
2022/11/05 08:29:44;;;;;;;33.72;16.35;;;;;;;6.33;100.00;101602.53;5030146;28;20052;-75
2022/11/05 08:32:09;;;;;;;33.78;17.70;;;;;;;6.49;100.00;101599.28;5031533;28;20044;-75
2022/11/05 08:34:35;;;;;;;33.67;16.75;;;;;;;6.64;100.00;101604.97;5024701;28;20041;-76
2022/11/05 08:37:01;;;;;;;32.90;17.10;;;;;;;6.69;100.00;101598.59;5033182;28;20033;-75
2022/11/05 08:39:26;;;;;;;33.13;16.35;;;;;;;6.79;100.00;101603.59;5036486;28;20044;-76
2022/11/05 08:41:52;;;;;;;27.65;16.45;;;;;;;6.86;100.00;101607.72;5030939;28;20055;-76
2022/11/05 08:44:17;;;;;;;32.05;16.77;;;;;;;6.85;100.00;101608.66;5015273;28;20044;-75
2022/11/05 08:46:43;;;;;;;28.27;17.75;;;;;;;7.05;100.00;101602.63;5031772;28;20056;-76
2022/11/05 08:49:08;;;;;;;29.75;16.92;;;;;;;7.04;100.00;101603.56;5029620;28;20029;-76
2022/11/05 08:51:34;;;;;;;31.52;16.25;;;;;;;7.17;100.00;101604.81;5030970;28;20482;-76
2022/11/05 08:53:59;;;;;;;29.10;16.75;;;;;;;7.20;100.00;101610.91;5028163;28;20813;-76
2022/11/05 08:56:24;;;;;;;27.00;14.88;;;;;;;7.25;100.00;101614.25;5031641;28;20032;-76
2022/11/05 08:58:50;;;;;;;31.30;17.02;;;;;;;7.34;100.00;101605.09;5021911;28;20108;-76
2022/11/05 09:01:16;;;;;;;32.00;14.75;;;;;;;7.35;100.00;101600.63;5034574;28;20049;-76
2022/11/05 09:03:41;;;;;;;26.80;15.43;;;;;;;7.46;100.00;101604.59;5040558;28;20122;-76
2022/11/05 09:06:07;;;;;;;21.70;13.35;;;;;;;7.70;100.00;101602.78;5033278;28;20397;-76
2022/11/05 09:08:32;;;;;;;29.50;14.90;;;;;;;7.76;100.00;101605.19;5036935;28;20244;-76
2022/11/05 09:10:58;;;;;;;23.30;12.95;;;;;;;7.83;100.00;101603.19;5034915;28;20052;-76
2022/11/05 09:13:24;;;;;;;18.60;11.80;;;;;;;7.95;100.00;101602.69;5041515;28;20136;-74
2022/11/05 09:15:50;;;;;;;21.50;11.68;;;;;;;7.96;100.00;101599.09;5033960;28;20026;-75
2022/11/05 09:18:19;;;;;;;30.77;14.05;;;;;;;8.19;100.00;101607.94;5037363;28;20474;-74
2022/11/05 09:20:44;;;;;;;23.35;12.18;;;;;;;8.10;100.00;101606.53;5033047;28;20109;-74
2022/11/05 09:23:11;;;;;;;24.95;11.90;;;;;;;8.24;100.00;101609.47;5032272;28;20037;-74
2022/11/05 09:25:36;;;;;;;22.30;12.27;;;;;;;8.35;100.00;101605.50;5029927;28;20047;-74
2022/11/05 09:28:11;;;;;;;18.90;11.73;;;;;;;8.45;100.00;101613.06;5032310;28;20041;-75
2022/11/05 09:30:41;;;;;;;22.17;12.55;;;;;;;8.52;100.00;101619.84;5032360;28;20029;-75
2022/11/05 09:33:07;;;;;;;24.98;11.82;;;;;;;8.43;100.00;101617.56;5034788;28;20520;-74
2022/11/05 09:35:32;;;;;;;21.33;12.32;;;;;;;8.63;100.00;101623.81;5031676;28;20033;-75
2022/11/05 09:37:58;;;;;;;21.52;12.48;;;;;;;8.63;100.00;101624.69;5031891;28;20873;-74
2022/11/05 09:40:24;;;;;;;23.77;11.43;;;;;;;8.66;100.00;101629.03;5032327;28;20038;-75
2022/11/05 09:42:53;;;;;;;20.88;13.43;;;;;;;8.61;100.00;101631.88;5035153;28;20056;-75
2022/11/05 09:45:23;;;;;;;18.38;11.57;;;;;;;8.83;100.00;101634.47;5036177;28;20037;-75
2022/11/05 09:47:55;;;;;;;25.67;11.68;;;;;;;8.87;100.00;101632.56;5038859;28;20032;-75
2022/11/05 09:50:29;;;;;;;22.27;12.25;;;;;;;9.06;100.00;101636.13;5029812;28;20064;-75
2022/11/05 09:52:55;;;;;;;20.92;11.00;;;;;;;9.03;100.00;101630.94;5033653;28;20048;-75
2022/11/05 09:55:31;;;;;;;19.85;11.00;;;;;;;8.95;100.00;101633.94;5034978;28;20036;-74
2022/11/05 09:58:00;;;;;;;17.67;10.55;;;;;;;9.16;100.00;101633.94;5030287;28;20033;-75
2022/11/05 10:00:27;;;;;;;21.55;11.57;;;;;;;9.17;100.00;101635.66;5037693;28;20045;-74
2022/11/05 10:03:05;;;;;;;20.17;10.95;;;;;;;9.27;100.00;101634.31;5030169;28;20042;-74
2022/11/05 10:05:32;;;;;;;17.73;10.30;;;;;;;9.36;100.00;101641.03;5034368;28;20037;-75
2022/11/05 10:08:06;;;;;;;18.05;10.35;;;;;;;9.42;100.00;101641.59;5031035;28;20033;-75
2022/11/05 10:10:44;;;;;;;16.50;10.07;;;;;;;9.50;100.00;101644.78;5036653;28;20045;-75
2022/11/05 10:13:22;;;;;;;16.75;9.63;;;;;;;9.63;100.00;101637.06;5029427;28;20051;-75
2022/11/05 10:16:00;;;;;;;20.13;10.27;;;;;;;9.60;100.00;101642.56;5032789;28;20102;-75
2022/11/05 10:18:31;;;;;;;17.58;10.32;;;;;;;9.67;100.00;101640.47;5033424;28;20052;-75
2022/11/05 10:20:57;;;;;;;16.38;10.18;;;;;;;9.70;100.00;101643.00;5029081;28;20469;-75
2022/11/05 10:23:26;;;;;;;17.65;10.25;;;;;;;9.72;100.00;101644.63;5032716;28;20044;-74
2022/11/05 10:25:59;;;;;;;19.70;10.35;;;;;;;9.84;100.00;101646.75;5034624;28;20055;-75
2022/11/05 10:28:27;;;;;;;16.45;10.25;;;;;;;10.08;100.00;101647.34;5038487;28;20919;-74
2022/11/05 10:30:59;;;;;;;19.95;11.52;;;;;;;10.04;100.00;101651.13;5025985;28;20079;-75
2022/11/05 10:33:44;;;;;;;17.50;10.70;;;;;;;10.29;100.00;101648.16;5027054;28;20064;-73
2022/11/05 10:36:21;;;;;;;17.40;9.63;;;;;;;10.38;100.00;101639.69;5013340;28;20125;-75
2022/11/05 10:38:47;;;;;;;12.38;7.40;;;;;;;10.37;100.00;101648.63;5031700;28;20052;-75
2022/11/05 10:41:26;;;;;;;17.45;8.10;;;;;;;10.51;100.00;101637.28;5031776;28;20195;-75
2022/11/05 10:44:18;;;;;;;16.17;7.25;;;;;;;10.58;100.00;101640.47;5031288;28;20044;-75
2022/11/05 10:47:00;;;;;;;20.85;7.38;;;;;;;10.62;100.00;101634.91;4976568;28;20054;-74
2022/11/05 10:49:55;;;;;;;11.18;6.72;;;;;;;11.00;100.00;101641.91;4982290;28;20092;-74
2022/11/05 10:52:24;;;;;;;13.57;6.20;;;;;;;10.86;100.00;101631.94;4980695;28;20124;-74
2022/11/05 10:54:52;;;;;;;13.27;6.45;;;;;;;11.34;100.00;101633.81;4975931;28;20073;-74
2022/11/05 10:57:38;;;;;;;11.88;6.53;;;;;;;11.36;100.00;101642.63;4983682;28;20046;-74
2022/11/05 11:00:13;;;;;;;16.73;5.95;;;;;;;11.23;100.00;101636.19;4973317;28;20042;-74
2022/11/05 11:02:40;;;;;;;13.25;5.82;;;;;;;11.45;100.00;101635.06;4976677;28;20046;-74
2022/11/05 11:05:09;;;;;;;12.57;5.68;;;;;;;11.29;100.00;101640.34;4976986;28;20133;-74
2022/11/05 11:07:35;;;;;;;12.27;6.53;;;;;;;11.31;100.00;101641.13;4976840;28;20049;-74
2022/11/05 11:10:01;;;;;;;14.30;6.00;;;;;;;11.35;100.00;101640.91;4963057;28;20055;-73
2022/11/05 11:12:36;;;;;;;15.45;5.88;;;;;;;11.17;99.91;101639.19;4953275;28;20054;-75
2022/11/05 11:15:26;;;;;;;13.38;5.68;;;;;;;11.05;100.00;101638.06;4977491;28;20042;-74
2022/11/05 11:17:55;;;;;;;10.15;6.68;;;;;;;11.16;100.00;101642.81;4978380;28;20491;-74
2022/11/05 11:20:23;;;;;;;14.23;6.32;;;;;;;11.35;100.00;101642.72;4973598;28;20043;-75
2022/11/05 11:22:58;;;;;;;13.23;5.85;;;;;;;11.44;100.00;101652.00;4983176;28;20081;-75
2022/11/05 11:25:26;;;;;;;12.88;6.22;;;;;;;11.46;100.00;101648.31;5029931;28;20042;-74
2022/11/05 11:27:52;;;;;;;18.42;6.85;;;;;;;11.29;99.38;101646.53;5035230;28;20043;-75
2022/11/05 11:30:19;;;;;;;15.98;6.90;;;;;;;11.35;97.79;101646.25;5031597;28;20044;-75
2022/11/05 11:32:46;;;;;;;18.60;7.05;;;;;;;11.40;99.07;101640.66;5031984;28;20106;-74
2022/11/05 11:35:30;;;;;;;14.82;7.30;;;;;;;11.42;99.43;101644.09;5030517;28;20049;-74
2022/11/05 11:37:59;;;;;;;14.38;6.13;;;;;;;11.40;97.27;101649.53;5034437;28;20044;-75
2022/11/05 11:40:36;;;;;;;10.30;6.22;;;;;;;11.41;97.85;101650.38;5031491;28;20040;-74
2022/11/05 11:43:26;;;;;;;18.35;6.82;;;;;;;11.35;98.37;101650.72;5027784;28;20025;-73
2022/11/05 11:45:53;;;;;;;10.45;6.82;;;;;;;11.30;97.23;101648.28;5032378;28;20037;-74
2022/11/05 11:48:26;;;;;;;12.25;5.88;;;;;;;11.44;96.24;101644.84;5035137;28;20042;-74
2022/11/05 11:50:52;;;;;;;8.38;5.85;;;;;;;11.48;98.14;101649.09;5028446;28;20034;-74
2022/11/05 11:53:21;;;;;;;12.95;7.15;;;;;;;11.61;97.84;101647.50;5032630;28;20500;-75
2022/11/05 11:56:13;;;;;;;13.93;6.30;;;;;;;11.67;96.08;101643.63;5028331;28;20067;-74
2022/11/05 11:58:44;;;;;;;15.43;5.93;;;;;;;11.47;95.88;101644.69;5028508;28;20080;-75
2022/11/05 12:01:23;;;;;;;10.63;6.28;;;;;;;11.40;96.72;101648.66;5027377;28;20056;-74